Time;durP1;ratioP1;P1;durP2;ratioP2;P2;SDS_P1;SDS_P2;PMS_P1;PMS_P2;Temp;Humidity;BMP_temperature;BMP_pressure;BME280_temperature;BME280_humidity;BME280_pressure;Samples;Min_cycle;Max_cycle;Signal;HPM_P1;HPM_P2
2021/11/21 00:01:11;;;;;;;5.95;4.60;;;;;;;10.09;91.75;101509.50;10583279;28;20035;-75
2021/11/21 00:06:14;;;;;;;4.90;4.40;;;;;;;10.13;91.45;101499.16;10565298;28;20039;-76
2021/11/21 00:11:15;;;;;;;7.40;5.57;;;;;;;10.16;92.02;101493.38;10582908;28;20036;-76
2021/11/21 00:16:16;;;;;;;12.80;4.85;;;;;;;10.21;92.33;101490.97;10565090;28;20112;-75
2021/11/21 00:21:17;;;;;;;4.25;3.78;;;;;;;10.23;92.00;101483.50;10582925;28;20462;-77
2021/11/21 00:26:17;;;;;;;5.55;4.50;;;;;;;10.19;91.79;101476.78;10564585;28;20047;-75
2021/11/21 00:31:18;;;;;;;4.82;3.63;;;;;;;10.21;92.46;101477.44;10563758;28;20386;-76
2021/11/21 00:36:18;;;;;;;4.57;4.00;;;;;;;10.22;91.95;101466.44;10547347;28;20020;-74
2021/11/21 00:41:18;;;;;;;13.68;5.40;;;;;;;10.27;92.24;101474.03;10582251;28;20033;-76
2021/11/21 00:46:19;;;;;;;4.57;4.20;;;;;;;10.31;92.70;101467.25;10563688;28;20394;-76
2021/11/21 00:51:19;;;;;;;10.60;6.50;;;;;;;10.34;92.18;101466.03;10564030;28;20039;-75
2021/11/21 00:56:20;;;;;;;11.68;4.82;;;;;;;10.43;92.01;101462.22;10563743;28;20498;-76
2021/11/21 01:01:21;;;;;;;5.05;4.55;;;;;;;10.44;92.07;101459.34;10582766;28;20027;-75
2021/11/21 01:06:21;;;;;;;6.22;4.22;;;;;;;10.48;92.28;101454.41;10587807;28;20032;-75
2021/11/21 01:11:21;;;;;;;11.70;4.68;;;;;;;10.50;92.55;101446.09;10586697;28;20032;-80
2021/11/21 01:16:22;;;;;;;6.60;3.80;;;;;;;10.46;92.22;101446.47;10583324;28;20218;-79
2021/11/21 01:21:22;;;;;;;12.77;6.85;;;;;;;10.46;92.67;101432.94;10565890;28;20072;-80
2021/11/21 01:26:22;;;;;;;9.10;4.90;;;;;;;10.46;93.25;101432.06;10582779;28;20126;-79
2021/11/21 01:31:23;;;;;;;11.45;4.65;;;;;;;10.39;92.69;101439.25;10566665;28;20084;-80
2021/11/21 01:36:23;;;;;;;8.07;4.22;;;;;;;10.27;92.90;101427.19;10583745;28;20050;-80
2021/11/21 01:41:24;;;;;;;9.57;4.75;;;;;;;10.24;93.25;101421.09;10584374;28;20120;-80
2021/11/21 01:46:32;;;;;;;6.18;4.70;;;;;;;10.24;93.15;101420.22;10548226;28;20024;-80
2021/11/21 01:51:32;;;;;;;8.40;4.03;;;;;;;10.26;93.33;101420.94;10566180;28;20118;-80
2021/11/21 01:56:33;;;;;;;7.80;6.75;;;;;;;10.26;93.73;101412.81;10583989;28;20119;-80
2021/11/21 02:01:33;;;;;;;10.43;7.15;;;;;;;10.29;93.25;101406.19;10583778;28;20031;-79
2021/11/21 02:06:34;;;;;;;10.65;7.00;;;;;;;10.28;93.40;101401.81;10583040;28;20539;-81
2021/11/21 02:11:34;;;;;;;11.38;6.00;;;;;;;10.27;94.24;101392.00;10565017;28;20027;-81
2021/11/21 02:16:35;;;;;;;10.50;5.53;;;;;;;10.29;93.74;101390.78;10582746;28;20036;-82
2021/11/21 02:21:35;;;;;;;8.60;7.20;;;;;;;10.27;94.16;101383.88;10566818;28;20035;-80
2021/11/21 02:26:35;;;;;;;8.50;6.68;;;;;;;10.26;94.21;101374.91;10564272;28;20047;-80
2021/11/21 02:31:36;;;;;;;13.70;5.25;;;;;;;10.26;94.60;101364.09;10549215;28;20031;-82
2021/11/21 02:36:41;;;;;;;5.30;4.90;;;;;;;10.26;94.20;101347.84;10590339;28;20111;-82
2021/11/21 02:41:41;;;;;;;7.00;6.30;;;;;;;10.21;94.62;101342.97;10572280;28;20108;-82
2021/11/21 02:46:41;;;;;;;7.70;6.90;;;;;;;10.22;94.88;101341.09;10590707;28;20036;-82
2021/11/21 02:51:42;;;;;;;9.15;5.10;;;;;;;10.23;94.93;101326.53;10588944;28;20046;-82
2021/11/21 02:56:42;;;;;;;11.68;4.47;;;;;;;10.23;94.66;101321.94;10591013;28;20393;-81
2021/11/21 03:01:43;;;;;;;4.30;3.90;;;;;;;10.20;95.13;101310.66;10571774;28;20390;-79
2021/11/21 03:06:43;;;;;;;8.57;3.25;;;;;;;10.15;95.58;101322.06;10590136;28;20027;-80
2021/11/21 03:11:43;;;;;;;6.78;3.70;;;;;;;10.15;95.28;101326.63;10589737;28;20382;-80
2021/11/21 03:16:47;;;;;;;4.38;3.08;;;;;;;10.11;95.41;101318.00;10571543;28;20027;-81
2021/11/21 03:21:48;;;;;;;10.90;2.90;;;;;;;10.11;95.65;101311.75;10572027;28;20059;-79
2021/11/21 03:26:48;;;;;;;4.05;2.78;;;;;;;10.11;95.17;101314.47;10555306;28;20062;-80
2021/11/21 03:31:49;;;;;;;4.15;2.72;;;;;;;10.00;95.15;101311.19;10571954;28;20052;-81
2021/11/21 03:36:49;;;;;;;3.63;2.13;;;;;;;9.99;95.20;101319.50;10589477;28;20092;-80
2021/11/21 03:41:50;;;;;;;4.18;1.60;;;;;;;10.00;95.27;101329.28;10587447;28;20031;-80
2021/11/21 03:46:51;;;;;;;6.50;3.55;;;;;;;9.96;95.55;101322.56;10569961;28;20031;-81
2021/11/21 03:51:51;;;;;;;5.07;2.78;;;;;;;9.87;95.50;101321.81;10586777;28;20040;-81
2021/11/21 03:56:52;;;;;;;3.47;1.88;;;;;;;9.81;95.25;101327.94;10551290;28;20038;-80
2021/11/21 04:01:54;;;;;;;6.88;2.47;;;;;;;9.67;95.32;101332.28;10568833;28;20042;-79
2021/11/21 04:06:54;;;;;;;9.82;1.52;;;;;;;9.65;94.78;101319.97;10553415;28;20031;-80
2021/11/21 04:11:55;;;;;;;2.33;1.13;;;;;;;9.61;95.33;101324.91;10575105;28;20035;-80
2021/11/21 04:16:55;;;;;;;9.13;2.53;;;;;;;9.61;95.17;101326.75;10589021;28;20036;-79
2021/11/21 04:21:56;;;;;;;10.23;2.00;;;;;;;9.59;95.17;101324.22;10568808;28;20035;-79
2021/11/21 04:26:56;;;;;;;4.95;2.28;;;;;;;9.55;94.44;101326.44;10586021;28;20067;-79
2021/11/21 04:31:57;;;;;;;6.90;1.92;;;;;;;9.47;94.49;101331.91;10586624;28;20044;-79
2021/11/21 04:36:59;;;;;;;6.70;2.63;;;;;;;9.47;94.44;101331.91;10586293;28;20532;-79
2021/11/21 04:41:59;;;;;;;9.75;3.15;;;;;;;9.35;94.66;101327.97;10569564;28;20034;-80
2021/11/21 04:47:00;;;;;;;3.15;2.15;;;;;;;9.32;95.00;101328.31;10586702;28;20058;-80
2021/11/21 04:52:00;;;;;;;10.52;2.25;;;;;;;9.29;94.25;101323.25;10586656;28;20358;-79
2021/11/21 04:57:01;;;;;;;8.98;2.28;;;;;;;9.26;94.22;101318.22;10586258;28;20066;-79
2021/11/21 05:02:02;;;;;;;2.05;1.35;;;;;;;9.25;94.37;101319.22;10583067;28;20032;-79
2021/11/21 05:07:03;;;;;;;5.05;1.65;;;;;;;9.21;94.45;101318.72;10583694;28;20490;-79
2021/11/21 05:12:04;;;;;;;8.20;2.03;;;;;;;9.17;94.62;101317.41;10583777;28;20127;-79
2021/11/21 05:17:04;;;;;;;7.20;1.77;;;;;;;9.14;94.42;101319.63;10584112;28;20110;-78
2021/11/21 05:22:04;;;;;;;4.65;2.45;;;;;;;9.08;93.45;101326.59;10566404;28;20031;-78
2021/11/21 05:27:05;;;;;;;8.75;2.42;;;;;;;9.02;93.16;101317.31;10565532;28;20083;-78
2021/11/21 05:32:05;;;;;;;9.98;1.92;;;;;;;8.94;92.98;101314.69;10585227;28;20032;-78
2021/11/21 05:37:06;;;;;;;4.15;3.03;;;;;;;8.86;93.11;101312.00;10584183;28;20136;-78
2021/11/21 05:42:06;;;;;;;7.63;1.58;;;;;;;8.80;92.91;101312.69;10566802;28;20478;-77
2021/11/21 05:47:06;;;;;;;9.80;1.95;;;;;;;8.78;92.92;101320.16;10583328;28;20040;-78
2021/11/21 05:52:07;;;;;;;11.15;2.72;;;;;;;8.74;93.31;101311.56;10549012;28;20051;-77
2021/11/21 05:57:07;;;;;;;12.07;3.72;;;;;;;8.73;92.92;101306.31;10582844;28;20107;-78
2021/11/21 06:02:08;;;;;;;5.18;1.90;;;;;;;8.69;92.85;101311.25;10582836;28;20149;-77
2021/11/21 06:07:10;;;;;;;8.60;2.65;;;;;;;8.67;92.71;101312.44;10568038;28;20514;-76
2021/11/21 06:12:10;;;;;;;6.80;1.73;;;;;;;8.69;93.06;101315.81;10591917;28;20039;-78
2021/11/21 06:17:12;;;;;;;6.88;2.08;;;;;;;8.59;93.50;101327.66;10574516;28;20028;-79
2021/11/21 06:22:13;;;;;;;10.15;2.42;;;;;;;8.54;93.28;101324.63;10592630;28;20080;-80
2021/11/21 06:27:14;;;;;;;9.63;2.63;;;;;;;8.42;93.72;101326.00;10572612;28;20112;-80
2021/11/21 06:32:14;;;;;;;5.60;2.88;;;;;;;8.33;93.42;101318.94;10571888;28;20035;-80
2021/11/21 06:37:14;;;;;;;8.18;2.80;;;;;;;8.31;93.59;101321.78;10573875;28;20040;-79
2021/11/21 06:42:15;;;;;;;3.05;1.83;;;;;;;8.29;93.60;101320.28;10592004;28;20458;-79
2021/11/21 06:47:17;;;;;;;6.53;2.90;;;;;;;8.26;93.33;101320.63;10590749;28;20039;-78
2021/11/21 06:52:18;;;;;;;8.02;2.97;;;;;;;8.15;93.01;101314.56;10594007;28;20033;-78
2021/11/21 06:57:20;;;;;;;11.10;3.17;;;;;;;8.05;92.72;101318.47;10589778;28;20035;-79
2021/11/21 07:02:21;;;;;;;23.70;4.03;;;;;;;7.97;91.80;101319.31;10590115;28;20028;-78
2021/11/21 07:07:22;;;;;;;2.95;2.03;;;;;;;7.87;91.64;101332.97;10570335;28;20028;-78
2021/11/21 07:12:22;;;;;;;11.73;2.30;;;;;;;7.92;92.99;101332.47;10590389;28;20036;-78
2021/11/21 07:17:23;;;;;;;3.30;2.25;;;;;;;8.02;92.31;101340.38;10554267;28;20482;-78
2021/11/21 07:22:23;;;;;;;2.17;1.98;;;;;;;7.97;91.81;101354.38;10589946;28;20039;-78
2021/11/21 07:27:23;;;;;;;13.07;2.20;;;;;;;7.84;90.58;101360.28;10587799;28;20398;-78
2021/11/21 07:32:24;;;;;;;6.57;2.65;;;;;;;7.74;90.21;101364.16;10590828;28;20114;-78
2021/11/21 07:37:24;;;;;;;7.25;3.08;;;;;;;7.63;90.44;101357.25;10588591;28;20406;-78
2021/11/21 07:42:25;;;;;;;4.55;2.50;;;;;;;7.70;90.47;101369.03;10588516;28;20112;-77
2021/11/21 07:47:25;;;;;;;12.07;3.70;;;;;;;7.64;89.73;101375.09;10574228;28;20047;-78
2021/11/21 07:52:26;;;;;;;15.60;2.83;;;;;;;7.60;90.12;101379.97;10588297;28;20096;-78
2021/11/21 07:57:26;;;;;;;7.00;2.53;;;;;;;7.53;89.85;101376.28;10587483;28;20035;-77
2021/11/21 08:02:26;;;;;;;12.95;2.63;;;;;;;7.72;90.84;101385.03;10585521;28;20047;-78
2021/11/21 08:07:27;;;;;;;6.13;2.47;;;;;;;7.77;90.39;101388.91;10530543;28;20502;-82
2021/11/21 08:12:27;;;;;;;17.73;3.65;;;;;;;7.67;89.60;101385.53;10586472;28;20085;-79
2021/11/21 08:17:28;;;;;;;5.25;2.35;;;;;;;7.69;90.08;101386.22;10587090;28;20466;-80
2021/11/21 08:22:28;;;;;;;4.45;2.05;;;;;;;7.87;90.85;101394.16;10566922;28;20036;-82
2021/11/21 08:27:28;;;;;;;15.05;4.10;;;;;;;7.99;90.55;101397.38;10592004;28;20136;-81
2021/11/21 08:32:29;;;;;;;11.73;3.13;;;;;;;8.41;91.14;101390.94;10585650;28;20044;-81
2021/11/21 08:37:29;;;;;;;8.13;3.05;;;;;;;8.34;89.73;101396.16;10586105;28;20032;-82
2021/11/21 08:42:30;;;;;;;13.02;3.58;;;;;;;8.32;89.61;101392.78;10569073;28;20067;-80
2021/11/21 08:47:31;;;;;;;12.90;3.25;;;;;;;8.23;88.71;101391.09;10586694;28;20043;-79
2021/11/21 08:52:31;;;;;;;15.20;3.50;;;;;;;8.17;88.97;101389.94;10586933;28;20093;-82
2021/11/21 08:57:31;;;;;;;8.35;2.60;;;;;;;8.19;89.89;101387.91;10570028;28;20467;-81
2021/11/21 09:02:33;;;;;;;13.57;3.35;;;;;;;8.11;89.28;101396.03;10586650;28;20043;-82
2021/11/21 09:07:34;;;;;;;11.00;2.58;;;;;;;8.24;89.42;101398.22;10551258;28;20032;-80
2021/11/21 09:12:34;;;;;;;12.52;3.25;;;;;;;8.30;89.42;101394.81;10567242;28;20042;-79
2021/11/21 09:17:35;;;;;;;4.07;3.05;;;;;;;8.34;89.06;101398.88;10567197;28;20023;-79
2021/11/21 09:22:36;;;;;;;5.65;2.65;;;;;;;9.11;90.69;101406.44;10585875;28;20032;-79
2021/11/21 09:27:36;;;;;;;5.28;2.95;;;;;;;9.27;91.22;101396.41;10567966;28;20059;-79
2021/11/21 09:32:36;;;;;;;7.85;2.78;;;;;;;10.67;90.67;101401.59;10567514;28;20047;-79
2021/11/21 09:37:37;;;;;;;5.88;2.88;;;;;;;11.90;91.27;101400.84;10507859;28;20047;-79
2021/11/21 09:42:38;;;;;;;4.32;1.58;;;;;;;12.61;91.95;101403.50;10589860;28;20061;-79
2021/11/21 09:47:38;;;;;;;5.72;2.65;;;;;;;13.09;90.21;101402.72;10575080;28;20031;-78
2021/11/21 09:52:39;;;;;;;11.35;2.88;;;;;;;13.13;90.56;101404.00;10593606;28;20024;-77
2021/11/21 09:57:39;;;;;;;6.13;1.60;;;;;;;13.57;90.59;101409.00;10593485;28;20386;-77
2021/11/21 10:02:45;;;;;;;10.40;2.13;;;;;;;13.64;89.60;101404.41;10573991;28;20044;-77
2021/11/21 10:07:46;;;;;;;1.92;1.77;;;;;;;13.85;89.59;101413.50;10557438;28;20047;-77
2021/11/21 10:12:46;;;;;;;4.82;1.90;;;;;;;13.85;88.69;101410.75;10592165;28;20036;-77
2021/11/21 10:17:50;;;;;;;4.57;1.35;;;;;;;14.13;89.27;101414.13;10591685;28;20123;-76
2021/11/21 10:22:59;;;;;;;2.67;2.47;;;;;;;14.06;88.35;101405.13;10592158;28;20145;-76
2021/11/21 10:28:04;;;;;;;4.75;1.70;;;;;;;14.16;89.65;101407.44;10590605;28;20490;-77
2021/11/21 10:33:05;;;;;;;3.67;1.45;;;;;;;14.36;89.24;101413.72;10591866;28;20467;-76
2021/11/21 10:38:05;;;;;;;4.97;1.98;;;;;;;13.10;90.12;101410.66;10591317;28;20036;-76
2021/11/21 10:43:06;;;;;;;1.30;1.20;;;;;;;13.14;89.09;101416.53;10572735;28;20028;-76
2021/11/21 10:48:06;;;;;;;5.38;1.13;;;;;;;13.86;88.78;101413.25;10590567;28;20044;-76
2021/11/21 10:53:08;;;;;;;0.88;0.88;;;;;;;14.32;89.85;101417.06;10571139;28;20047;-76
2021/11/21 10:58:18;;;;;;;1.42;1.30;;;;;;;14.33;89.19;101407.88;10588146;28;20118;-76
2021/11/21 11:03:21;;;;;;;1.73;1.63;;;;;;;14.49;89.27;101414.78;10570589;28;20020;-76
2021/11/21 11:08:28;;;;;;;3.70;1.38;;;;;;;14.65;88.82;101417.94;10570534;28;20115;-75
2021/11/21 11:13:30;;;;;;;1.52;1.42;;;;;;;14.83;89.46;101398.16;10554206;28;20040;-76
2021/11/21 11:18:30;;;;;;;3.40;2.45;;;;;;;14.36;89.55;101407.44;10587981;28;20031;-76
2021/11/21 11:23:31;;;;;;;4.05;1.90;;;;;;;14.16;88.89;101405.53;10569344;28;20040;-76
2021/11/21 11:28:33;;;;;;;2.15;1.83;;;;;;;14.67;89.59;101406.78;10570300;28;20406;-76
2021/11/21 11:33:35;;;;;;;5.25;2.65;;;;;;;14.09;92.42;101410.16;10570321;28;20106;-77
2021/11/21 11:38:36;;;;;;;7.25;1.65;;;;;;;12.64;88.34;101427.56;10587683;28;20036;-77
2021/11/21 11:43:38;;;;;;;13.65;2.05;;;;;;;11.22;88.51;101419.22;10567896;28;20444;-77
2021/11/21 11:48:45;;;;;;;14.55;2.63;;;;;;;10.42;88.63;101428.91;10569765;28;20080;-76
2021/11/21 11:53:47;;;;;;;5.05;2.17;;;;;;;9.89;87.94;101430.69;10569451;28;20107;-76
2021/11/21 11:58:51;;;;;;;8.27;3.25;;;;;;;11.17;90.51;101418.97;10567828;28;20043;-77
2021/11/21 12:03:52;;;;;;;13.98;2.28;;;;;;;12.31;91.62;101430.81;10585370;28;20104;-76
2021/11/21 12:09:13;;;;;;;2.88;2.05;;;;;;;11.87;90.83;101422.94;10586431;28;20145;-76
2021/11/21 12:14:33;;;;;;;8.80;3.00;;;;;;;10.78;89.08;101425.47;10585683;28;20032;-77
2021/11/21 12:19:45;;;;;;;1.75;1.63;;;;;;;11.86;89.90;101419.34;10568104;28;20023;-77
2021/11/21 12:24:46;;;;;;;3.65;2.22;;;;;;;12.55;90.54;101423.31;10585657;28;20139;-77
2021/11/21 12:29:48;;;;;;;2.80;2.53;;;;;;;12.92;91.63;101415.78;10585300;28;20091;-78
2021/11/21 12:34:49;;;;;;;5.22;2.00;;;;;;;12.94;91.68;101417.28;10548671;28;20043;-79
2021/11/21 12:39:53;;;;;;;3.50;2.75;;;;;;;12.59;91.18;101421.03;10568145;28;20037;-78
2021/11/21 12:45:02;;;;;;;2.75;1.67;;;;;;;12.20;88.29;101420.50;10567223;28;20110;-78
2021/11/21 12:50:04;;;;;;;6.13;2.45;;;;;;;12.20;90.24;101423.22;10585333;28;20039;-79
2021/11/21 12:55:05;;;;;;;2.92;1.63;;;;;;;12.34;90.68;101425.00;10584989;28;20077;-79
2021/11/21 13:00:06;;;;;;;21.75;2.80;;;;;;;12.13;90.23;101429.66;10585013;28;20368;-78
2021/11/21 13:05:06;;;;;;;3.80;1.42;;;;;;;11.68;90.74;101428.91;10585565;28;20424;-79
2021/11/21 13:10:15;;;;;;;8.70;3.13;;;;;;;11.85;90.75;101438.56;10584876;28;20074;-79
2021/11/21 13:15:20;;;;;;;3.53;2.22;;;;;;;11.19;90.14;101446.69;10583763;28;20038;-80
2021/11/21 13:20:22;;;;;;;3.15;2.00;;;;;;;10.58;90.10;101457.69;10566578;28;20038;-78
2021/11/21 13:25:29;;;;;;;1.88;1.65;;;;;;;10.35;88.32;101455.03;10585249;28;20056;-82
2021/11/21 13:30:31;;;;;;;0.95;0.95;;;;;;;10.41;88.36;101437.22;10567531;28;20383;-82
2021/11/21 13:35:32;;;;;;;0.70;0.70;;;;;;;10.65;92.14;101428.00;10549242;28;20122;-77
2021/11/21 13:40:32;;;;;;;1.00;1.00;;;;;;;10.33;91.28;101448.94;10549563;28;20031;-77
2021/11/21 13:45:33;;;;;;;5.68;2.00;;;;;;;10.00;90.92;101441.06;10564822;28;20028;-78
2021/11/21 13:50:33;;;;;;;3.90;2.05;;;;;;;9.77;90.99;101459.16;10583786;28;20386;-77
2021/11/21 13:55:33;;;;;;;7.32;1.88;;;;;;;9.42;90.70;101483.00;10584511;28;20032;-79
2021/11/21 14:00:34;;;;;;;8.02;2.45;;;;;;;8.99;90.32;101468.94;10565372;28;20486;-78
2021/11/21 14:05:36;;;;;;;6.05;1.92;;;;;;;8.71;91.29;101465.81;10582582;28;20031;-77
2021/11/21 14:10:38;;;;;;;5.50;1.38;;;;;;;8.56;90.76;101457.56;10584332;28;20036;-78
2021/11/21 14:15:39;;;;;;;6.93;2.53;;;;;;;8.43;90.76;101473.44;10566603;28;20038;-77
2021/11/21 14:20:54;;;;;;;3.88;1.63;;;;;;;8.25;89.99;101483.53;10584573;28;20042;-77
2021/11/21 14:26:05;;;;;;;3.92;2.15;;;;;;;8.08;89.08;101488.06;10582931;28;20048;-76
2021/11/21 14:31:16;;;;;;;4.00;1.70;;;;;;;8.07;89.61;101491.75;10572867;28;20092;-76
2021/11/21 14:36:25;;;;;;;5.15;2.63;;;;;;;7.96;89.18;101497.47;10573686;28;20474;-76
2021/11/21 14:41:29;;;;;;;7.47;2.13;;;;;;;7.87;89.14;101504.69;10590718;28;20035;-76
2021/11/21 14:46:31;;;;;;;6.63;2.22;;;;;;;7.83;89.36;101514.13;10570980;28;20114;-76
2021/11/21 14:51:32;;;;;;;14.98;2.33;;;;;;;7.74;88.81;101515.13;10589293;28;20027;-77
2021/11/21 14:56:32;;;;;;;2.80;1.45;;;;;;;7.81;88.84;101513.44;10588847;28;20040;-76
2021/11/21 15:01:34;;;;;;;2.17;1.75;;;;;;;7.98;89.62;101533.22;10588627;28;20408;-76
2021/11/21 15:06:35;;;;;;;1.70;1.60;;;;;;;7.99;87.53;101535.75;10587940;28;20028;-77
2021/11/21 15:11:36;;;;;;;2.85;1.50;;;;;;;7.51;90.55;101547.22;10570231;28;20492;-79
2021/11/21 15:16:37;;;;;;;3.00;1.70;;;;;;;7.34;91.16;101541.75;10569843;28;20039;-78
2021/11/21 15:21:38;;;;;;;6.32;1.70;;;;;;;7.18;90.86;101539.81;10569461;28;20038;-78
2021/11/21 15:26:38;;;;;;;6.47;2.78;;;;;;;7.04;89.86;101532.31;10588709;28;20463;-78
2021/11/21 15:31:40;;;;;;;10.05;1.98;;;;;;;6.88;88.67;101549.19;10586944;28;20050;-78
2021/11/21 15:36:41;;;;;;;8.57;2.35;;;;;;;6.72;88.09;101551.78;10587142;28;20038;-78
2021/11/21 15:41:41;;;;;;;5.53;3.67;;;;;;;6.65;88.25;101553.41;10568919;28;20494;-78
2021/11/21 15:46:42;;;;;;;13.82;3.53;;;;;;;6.63;88.59;101555.41;10568950;28;20036;-79
2021/11/21 15:51:42;;;;;;;6.75;3.35;;;;;;;6.51;88.30;101558.34;10586735;28;20106;-76
2021/11/21 15:56:43;;;;;;;13.32;3.58;;;;;;;6.48;88.01;101568.56;10587502;28;20047;-75
2021/11/21 16:01:44;;;;;;;8.45;3.20;;;;;;;6.43;88.49;101587.00;10586814;28;20074;-76
2021/11/21 16:06:44;;;;;;;6.10;3.33;;;;;;;6.38;88.28;101587.47;10586185;28;20462;-76
2021/11/21 16:11:44;;;;;;;17.60;8.65;;;;;;;6.38;88.27;101608.13;10569242;28;20362;-76
2021/11/21 16:16:45;;;;;;;7.05;3.75;;;;;;;6.46;89.54;101606.38;10586092;28;20028;-77
2021/11/21 16:21:45;;;;;;;12.13;4.32;;;;;;;6.56;89.71;101608.16;10586420;28;20125;-76
2021/11/21 16:26:47;;;;;;;15.13;4.75;;;;;;;6.64;90.24;101601.00;10584995;28;20487;-76
2021/11/21 16:31:48;;;;;;;7.85;4.82;;;;;;;6.79;91.00;101598.59;10585580;28;20046;-76
2021/11/21 16:36:54;;;;;;;14.00;4.25;;;;;;;6.92;91.21;101617.03;10567511;28;20028;-75
2021/11/21 16:41:54;;;;;;;10.38;3.03;;;;;;;6.93;90.76;101608.81;10569390;28;20058;-76
2021/11/21 16:46:54;;;;;;;9.13;3.63;;;;;;;6.88;90.27;101615.66;10567487;28;20035;-76
2021/11/21 16:51:55;;;;;;;8.32;3.97;;;;;;;6.80;89.47;101629.06;10584580;28;20122;-76
2021/11/21 16:56:55;;;;;;;9.88;2.97;;;;;;;6.73;89.67;101632.38;10566961;28;20514;-75
2021/11/21 17:01:56;;;;;;;12.65;4.28;;;;;;;6.83;89.85;101631.44;10565976;28;20046;-76
2021/11/21 17:06:56;;;;;;;7.22;3.70;;;;;;;6.75;89.76;101648.38;10583911;28;20486;-76
2021/11/21 17:11:57;;;;;;;23.20;5.07;;;;;;;6.71;89.53;101644.28;10565470;28;20422;-76
2021/11/21 17:16:59;;;;;;;3.80;2.90;;;;;;;6.64;88.45;101654.84;10583739;28;20089;-76
2021/11/21 17:22:00;;;;;;;7.68;3.53;;;;;;;6.51;88.85;101660.59;10582551;28;20096;-75
2021/11/21 17:27:00;;;;;;;20.17;4.45;;;;;;;6.48;87.90;101668.13;10548115;28;20067;-76
2021/11/21 17:32:01;;;;;;;18.05;3.60;;;;;;;6.29;87.15;101675.31;10583665;28;20035;-76
2021/11/21 17:37:01;;;;;;;11.63;3.65;;;;;;;6.27;87.63;101687.22;10564515;28;20031;-76
2021/11/21 17:42:02;;;;;;;12.80;3.40;;;;;;;6.49;90.09;101691.34;10583697;28;20378;-76
2021/11/21 17:47:02;;;;;;;11.73;5.10;;;;;;;6.62;90.37;101694.50;10584561;28;20087;-77
2021/11/21 17:52:03;;;;;;;12.40;4.15;;;;;;;6.58;89.98;101703.03;10583256;28;20034;-76
2021/11/21 17:57:04;;;;;;;14.60;3.25;;;;;;;6.63;90.07;101703.41;10582698;28;20063;-76
2021/11/21 18:02:04;;;;;;;15.77;4.07;;;;;;;6.43;88.23;101714.31;10584477;28;20035;-76
2021/11/21 18:07:04;;;;;;;14.68;4.15;;;;;;;6.28;87.33;101724.69;10555646;28;20028;-76
2021/11/21 18:12:05;;;;;;;10.75;3.38;;;;;;;6.14;87.17;101729.75;10590455;28;20312;-76
2021/11/21 18:17:06;;;;;;;10.93;5.15;;;;;;;6.00;87.07;101733.78;10590751;28;20039;-76
2021/11/21 18:22:07;;;;;;;10.27;3.63;;;;;;;5.90;87.16;101738.28;10573056;28;20447;-75
2021/11/21 18:27:08;;;;;;;11.55;4.80;;;;;;;5.83;86.87;101740.72;10571371;28;20051;-75
2021/11/21 18:32:08;;;;;;;24.63;6.03;;;;;;;5.90;87.70;101755.25;10589231;28;20047;-77
2021/11/21 18:37:08;;;;;;;19.05;5.90;;;;;;;6.14;89.72;101752.09;10571296;28;20032;-75
2021/11/21 18:42:09;;;;;;;11.15;4.95;;;;;;;6.19;89.19;101771.34;10571649;28;20454;-75
2021/11/21 18:47:11;;;;;;;21.58;6.05;;;;;;;6.12;88.46;101780.97;10589006;28;20491;-76
2021/11/21 18:52:14;;;;;;;16.60;4.43;;;;;;;5.97;86.92;101777.09;10589013;28;20047;-75
2021/11/21 18:57:21;;;;;;;15.48;5.28;;;;;;;5.93;87.38;101784.56;10589221;28;20028;-76
2021/11/21 19:02:27;;;;;;;23.65;5.75;;;;;;;5.94;87.54;101780.91;10589359;28;20082;-75
2021/11/21 19:07:28;;;;;;;15.43;4.80;;;;;;;6.00;88.06;101782.16;10555364;28;20031;-75
2021/11/21 19:12:28;;;;;;;23.45;5.22;;;;;;;5.94;87.29;101782.75;10587872;28;20036;-77
2021/11/21 19:17:28;;;;;;;14.90;4.22;;;;;;;5.90;87.10;101790.19;10587563;28;20114;-75
2021/11/21 19:22:29;;;;;;;6.53;3.20;;;;;;;5.82;86.92;101796.31;10588333;28;20043;-75
2021/11/21 19:27:29;;;;;;;19.63;4.15;;;;;;;5.81;86.70;101805.38;10588347;28;20091;-75
2021/11/21 19:32:30;;;;;;;27.42;5.53;;;;;;;5.76;87.48;101813.00;10586096;28;20031;-75
2021/11/21 19:37:30;;;;;;;16.58;3.65;;;;;;;5.75;87.18;101816.69;10587056;28;20035;-75
2021/11/21 19:42:32;;;;;;;10.57;3.88;;;;;;;5.69;86.73;101821.81;10586914;28;20039;-75
2021/11/21 19:47:32;;;;;;;8.95;4.13;;;;;;;5.66;86.88;101825.63;10568790;28;20454;-75
2021/11/21 19:52:33;;;;;;;17.27;4.78;;;;;;;5.61;86.68;101833.25;10586845;28;20115;-75
2021/11/21 19:57:34;;;;;;;18.15;6.22;;;;;;;5.62;87.00;101845.72;10586327;28;20103;-75
2021/11/21 20:02:35;;;;;;;8.52;4.80;;;;;;;5.66;86.80;101847.13;10585617;28;20032;-75
2021/11/21 20:07:37;;;;;;;11.77;4.20;;;;;;;5.55;86.81;101856.19;10586020;28;20108;-75
2021/11/21 20:12:38;;;;;;;4.95;4.05;;;;;;;5.60;87.14;101861.94;10586042;28;20130;-75
2021/11/21 20:17:38;;;;;;;10.63;3.60;;;;;;;5.60;86.85;101866.47;10567253;28;20034;-75
2021/11/21 20:22:39;;;;;;;15.13;3.95;;;;;;;5.58;86.89;101876.50;10567669;28;20524;-75
2021/11/21 20:27:39;;;;;;;11.40;4.72;;;;;;;5.67;87.92;101878.34;10550745;28;20039;-75
2021/11/21 20:37:59;;;;;;;10.20;3.53;;;;;;;5.72;87.88;101897.59;10585907;28;20032;-75
2021/11/21 20:43:05;;;;;;;6.13;2.95;;;;;;;5.76;87.35;101901.69;10566862;28;20382;-74
2021/11/21 20:48:05;;;;;;;9.63;2.93;;;;;;;5.74;87.69;101917.13;10584965;28;20115;-75
2021/11/21 20:53:08;;;;;;;4.03;3.22;;;;;;;5.70;87.00;101914.84;10566272;28;20317;-75
2021/11/21 20:58:09;;;;;;;16.17;4.70;;;;;;;5.70;87.46;101921.06;10567349;28;20039;-75
2021/11/21 21:03:09;;;;;;;4.50;3.25;;;;;;;5.67;86.94;101926.72;10583606;28;20499;-75
2021/11/21 21:08:10;;;;;;;15.68;3.45;;;;;;;5.61;87.17;101938.03;10584079;28;20352;-75
2021/11/21 21:13:10;;;;;;;4.28;3.05;;;;;;;5.65;87.82;101930.53;10583888;28;20032;-76
2021/11/21 21:18:11;;;;;;;12.50;3.58;;;;;;;5.63;87.99;101946.81;10582657;28;20114;-75
2021/11/21 21:23:12;;;;;;;11.40;3.55;;;;;;;5.65;88.02;101954.72;10584440;28;20451;-76
2021/11/21 21:28:13;;;;;;;4.45;2.88;;;;;;;5.69;87.79;101950.78;10563950;28;20047;-75
2021/11/21 21:33:18;;;;;;;6.25;2.00;;;;;;;5.59;87.64;101964.22;10565943;28;20443;-76
2021/11/21 21:38:19;;;;;;;12.85;3.33;;;;;;;5.55;87.69;101966.34;10584734;28;20028;-76
2021/11/21 21:43:20;;;;;;;6.00;3.10;;;;;;;5.48;87.98;101985.81;10583920;28;20090;-76
2021/11/21 21:48:21;;;;;;;10.88;4.00;;;;;;;5.49;88.04;101987.53;10582606;28;20397;-76
2021/11/21 21:53:21;;;;;;;13.82;4.10;;;;;;;5.48;88.02;101985.81;10563112;28;20034;-75
2021/11/21 21:58:22;;;;;;;8.07;3.22;;;;;;;5.43;87.79;102001.50;10581921;28;20043;-76
2021/11/21 22:03:22;;;;;;;8.00;2.80;;;;;;;5.44;88.04;101998.66;10563486;28;20119;-77
2021/11/21 22:08:23;;;;;;;5.78;2.60;;;;;;;5.33;87.26;102010.38;10563518;28;20077;-76
2021/11/21 22:13:24;;;;;;;8.30;2.25;;;;;;;5.32;87.81;102018.56;10581055;28;20032;-76
2021/11/21 22:18:25;;;;;;;7.88;3.03;;;;;;;5.31;87.96;102017.72;10581038;28;20036;-75
2021/11/21 22:23:25;;;;;;;6.43;3.45;;;;;;;5.33;87.97;102028.34;10582510;28;20039;-77
2021/11/21 22:28:26;;;;;;;2.85;2.25;;;;;;;5.29;88.21;102038.47;10565693;28;20173;-76
2021/11/21 22:33:26;;;;;;;3.72;2.10;;;;;;;5.35;88.00;102043.31;10564341;28;20040;-76
2021/11/21 22:38:26;;;;;;;9.35;2.40;;;;;;;5.32;88.07;102051.63;10582191;28;20473;-76
2021/11/21 22:43:27;;;;;;;2.22;1.73;;;;;;;5.26;88.00;102057.53;10582235;28;20088;-76
2021/11/21 22:48:27;;;;;;;8.15;1.92;;;;;;;5.24;88.25;102070.28;10548040;28;20043;-77
2021/11/21 22:53:28;;;;;;;6.50;3.28;;;;;;;5.32;88.02;102073.13;10572297;28;20078;-75
2021/11/21 22:58:28;;;;;;;4.60;2.72;;;;;;;5.26;88.28;102095.13;10589555;28;20027;-75
2021/11/21 23:03:29;;;;;;;6.25;2.55;;;;;;;5.26;88.33;102102.34;10570724;28;20088;-76
2021/11/21 23:08:29;;;;;;;4.43;2.47;;;;;;;5.18;88.78;102108.41;10553559;28;20426;-76
2021/11/21 23:13:29;;;;;;;10.27;3.50;;;;;;;5.29;88.65;102111.00;10553303;28;20063;-76